Time,TemperatureF,DewpointF,PressureIn,WindDirection,WindDirectionDegrees,WindSpeedMPH,WindSpeedGustMPH,Humidity,HourlyPrecipIn,Conditions,Clouds,dailyrainin,SoftwareType,DateUTC
2013-01-25 00:03:00,53.8,51.5,30.25,SW,223,0.0,0.0,92,0.00,,SKC,0.00,VWS V14.01,2013-01-25 06:03:00,
2013-01-25 00:08:00,53.6,51.3,30.25,SW,223,0.0,0.0,92,0.00,,SKC,0.00,VWS V14.01,2013-01-25 06:08:00,
2013-01-25 00:13:00,53.3,51.0,30.25,SW,223,0.0,0.0,92,0.00,,SKC,0.00,VWS V14.01,2013-01-25 06:13:00,
2013-01-25 00:18:00,53.1,50.8,30.25,SW,223,0.0,0.0,92,0.00,,SKC,0.00,VWS V14.01,2013-01-25 06:18:00,
2013-01-25 00:23:00,52.9,50.6,30.25,SW,223,0.0,0.0,92,0.00,,SKC,0.00,VWS V14.01,2013-01-25 06:23:00,
2013-01-25 00:28:00,52.6,50.3,30.25,SW,223,0.0,0.0,92,0.00,,SKC,0.00,VWS V14.01,2013-01-25 06:28:00,
2013-01-25 00:33:00,52.4,50.2,30.25,SW,223,0.0,0.0,92,0.00,,SKC,0.00,VWS V14.01,2013-01-25 06:33:00,
2013-01-25 00:38:00,52.2,50.0,30.26,SW,223,0.0,0.0,92,0.00,,SKC,0.00,VWS V14.01,2013-01-25 06:38:00,
2013-01-25 00:43:00,52.0,49.8,30.25,SW,223,0.0,0.0,92,0.00,,SKC,0.00,VWS V14.01,2013-01-25 06:43:00,
2013-01-25 00:48:00,51.9,49.7,30.25,SW,223,0.0,0.0,92,0.00,,SKC,0.00,VWS V14.01,2013-01-25 06:48:00,
2013-01-25 00:53:00,51.7,49.5,30.25,SW,223,0.0,0.0,92,0.00,,SKC,0.00,VWS V14.01,2013-01-25 06:53:00,
2013-01-25 00:58:00,51.5,49.3,30.25,SW,223,0.0,0.0,92,0.00,,SKC,0.00,VWS V14.01,2013-01-25 06:58:00,
2013-01-25 01:03:00,51.2,49.0,30.25,SW,223,0.0,0.0,92,0.00,,SKC,0.00,VWS V14.01,2013-01-25 07:03:00,
2013-01-25 01:08:00,50.9,48.7,30.25,SW,223,0.0,0.0,92,0.00,,SKC,0.00,VWS V14.01,2013-01-25 07:08:00,
2013-01-25 01:13:00,50.8,48.6,30.25,SW,223,0.0,0.0,92,0.00,,SKC,0.00,VWS V14.01,2013-01-25 07:13:00,
2013-01-25 01:18:00,50.8,48.6,30.25,SW,223,0.0,0.0,92,0.00,,SKC,0.00,VWS V14.01,2013-01-25 07:18:00,
2013-01-25 01:23:00,50.9,48.4,30.25,SW,223,0.0,0.0,91,0.00,,SKC,0.00,VWS V14.01,2013-01-25 07:23:00,
2013-01-25 01:28:00,50.8,48.3,30.25,SW,223,0.0,0.0,91,0.00,,SKC,0.00,VWS V14.01,2013-01-25 07:28:00,
2013-01-25 01:33:00,50.9,48.1,30.24,SW,223,0.0,0.0,90,0.00,,SKC,0.00,VWS V14.01,2013-01-25 07:33:00,
2013-01-25 01:38:00,51.0,48.2,30.24,SW,223,0.0,0.0,90,0.00,,SKC,0.00,VWS V14.01,2013-01-25 07:38:00,
2013-01-25 01:43:00,51.0,48.2,30.24,SW,223,0.0,0.0,90,0.00,,SKC,0.00,VWS V14.01,2013-01-25 07:43:00,
2013-01-25 01:48:00,51.1,48.3,30.24,SW,223,0.0,0.0,90,0.00,,SKC,0.00,VWS V14.01,2013-01-25 07:48:00,
2013-01-25 01:53:00,51.3,48.2,30.24,SW,223,0.0,0.0,89,0.00,,SKC,0.00,VWS V14.01,2013-01-25 07:53:00,
2013-01-25 01:58:00,51.5,48.1,30.24,SW,223,0.0,0.0,88,0.00,,SKC,0.00,VWS V14.01,2013-01-25 07:58:00,
2013-01-25 02:03:00,51.6,48.2,30.24,SW,223,0.0,0.0,88,0.00,,SKC,0.00,VWS V14.01,2013-01-25 08:03:00,
2013-01-25 02:08:00,51.7,48.3,30.24,SW,223,0.0,0.0,88,0.00,,SKC,0.00,VWS V14.01,2013-01-25 08:08:00,
2013-01-25 02:13:00,51.6,48.5,30.24,SW,223,0.0,0.0,89,0.00,,SKC,0.00,VWS V14.01,2013-01-25 08:13:00,
2013-01-25 02:18:00,51.4,48.3,30.24,SW,223,0.0,0.0,89,0.00,,SKC,0.00,VWS V14.01,2013-01-25 08:18:00,
2013-01-25 02:23:00,51.4,48.3,30.24,SW,223,0.0,0.0,89,0.00,,SKC,0.00,VWS V14.01,2013-01-25 08:23:00,
2013-01-25 02:28:00,51.2,48.4,30.24,SW,223,0.0,0.0,90,0.00,,SKC,0.00,VWS V14.01,2013-01-25 08:28:00,
2013-01-25 02:33:00,51.1,48.0,30.24,SW,223,0.0,0.0,89,0.00,,SKC,0.00,VWS V14.01,2013-01-25 08:33:00,
2013-01-25 02:38:00,51.1,48.0,30.23,SW,223,0.0,0.0,89,0.00,,SKC,0.00,VWS V14.01,2013-01-25 08:38:00,
2013-01-25 02:43:00,51.1,48.0,30.23,SW,223,0.0,0.0,89,0.00,,SKC,0.00,VWS V14.01,2013-01-25 08:43:00,
2013-01-25 02:48:00,51.2,48.1,30.23,SW,223,0.0,0.0,89,0.00,,SKC,0.00,VWS V14.01,2013-01-25 08:48:00,
2013-01-25 02:53:00,51.0,47.9,30.23,SW,223,0.0,1.0,89,0.00,,SKC,0.00,VWS V14.01,2013-01-25 08:53:00,
2013-01-25 02:58:00,50.9,47.8,30.23,SW,223,0.0,1.0,89,0.00,,SKC,0.00,VWS V14.01,2013-01-25 08:58:00,
2013-01-25 03:03:00,50.8,47.7,30.23,SW,223,0.0,0.0,89,0.00,,SKC,0.00,VWS V14.01,2013-01-25 09:03:00,
2013-01-25 03:08:00,50.6,47.8,30.23,SW,223,0.0,0.0,90,0.00,,SKC,0.00,VWS V14.01,2013-01-25 09:08:00,
2013-01-25 03:13:00,50.5,47.7,30.23,SW,223,0.0,0.0,90,0.00,,SKC,0.00,VWS V14.01,2013-01-25 09:13:00,
2013-01-25 03:18:00,50.3,47.5,30.23,SW,223,0.0,0.0,90,0.00,,SKC,0.00,VWS V14.01,2013-01-25 09:18:00,
2013-01-25 03:23:00,50.1,47.3,30.23,SW,223,0.0,0.0,90,0.00,,SKC,0.00,VWS V14.01,2013-01-25 09:23:00,
2013-01-25 03:28:00,50.0,47.2,30.23,SW,223,0.0,0.0,90,0.00,,SKC,0.00,VWS V14.01,2013-01-25 09:28:00,
2013-01-25 03:33:00,49.7,46.9,30.23,SW,223,0.0,0.0,90,0.00,,SKC,0.00,VWS V14.01,2013-01-25 09:33:00,
2013-01-25 03:38:00,49.5,46.7,30.23,SW,223,0.0,0.0,90,0.00,,SKC,0.00,VWS V14.01,2013-01-25 09:38:00,
2013-01-25 03:43:00,49.2,46.4,30.23,SW,223,0.0,0.0,90,0.00,,SKC,0.00,VWS V14.01,2013-01-25 09:43:00,
2013-01-25 03:48:00,49.1,46.3,30.22,SW,223,0.0,0.0,90,0.00,,SKC,0.00,VWS V14.01,2013-01-25 09:48:00,
2013-01-25 03:53:00,49.1,46.0,30.22,SW,223,0.0,0.0,89,0.00,,SKC,0.00,VWS V14.01,2013-01-25 09:53:00,
2013-01-25 03:58:00,49.2,46.1,30.22,SW,223,0.0,0.0,89,0.00,,SKC,0.00,VWS V14.01,2013-01-25 09:58:00,
2013-01-25 04:03:00,49.2,46.1,30.22,SW,223,0.0,0.0,89,0.00,,SKC,0.00,VWS V14.01,2013-01-25 10:03:00,
2013-01-25 04:08:00,49.0,45.9,30.22,SW,223,0.0,0.0,89,0.00,,SKC,0.00,VWS V14.01,2013-01-25 10:08:00,
2013-01-25 04:12:00,48.6,45.8,30.22,SW,223,0.0,0.0,90,0.00,,SKC,0.00,VWS V14.01,2013-01-25 10:12:00,
2013-01-25 04:17:00,48.2,45.4,30.22,SW,223,0.0,0.0,90,0.00,,SKC,0.00,VWS V14.01,2013-01-25 10:17:00,
2013-01-25 04:22:00,47.9,45.1,30.22,SW,223,0.0,0.0,90,0.00,,SKC,0.00,VWS V14.01,2013-01-25 10:22:00,
2013-01-25 04:27:00,47.9,45.1,30.22,SW,223,0.0,0.0,90,0.00,,SKC,0.00,VWS V14.01,2013-01-25 10:27:00,
2013-01-25 04:32:00,47.7,44.9,30.22,SW,223,0.0,0.0,90,0.00,,SKC,0.00,VWS V14.01,2013-01-25 10:32:00,
2013-01-25 04:37:00,47.6,44.8,30.23,SW,223,0.0,0.0,90,0.00,,SKC,0.00,VWS V14.01,2013-01-25 10:37:00,
2013-01-25 04:42:00,47.6,44.8,30.22,SW,223,0.0,0.0,90,0.00,,SKC,0.00,VWS V14.01,2013-01-25 10:42:00,
2013-01-25 04:47:00,47.4,44.6,30.23,SW,223,0.0,0.0,90,0.00,,SKC,0.00,VWS V14.01,2013-01-25 10:47:00,
2013-01-25 04:52:00,47.2,44.4,30.23,SW,223,0.0,0.0,90,0.00,,SKC,0.00,VWS V14.01,2013-01-25 10:52:00,
2013-01-25 04:57:00,47.4,44.3,30.23,SW,223,0.0,0.0,89,0.00,,SKC,0.00,VWS V14.01,2013-01-25 10:57:00,
2013-01-25 05:03:00,47.3,44.2,30.23,SW,223,0.0,0.0,89,0.00,,SKC,0.00,VWS V14.01,2013-01-25 11:03:00,
2013-01-25 05:08:00,47.3,44.2,30.24,SW,223,0.0,0.0,89,0.00,,SKC,0.00,VWS V14.01,2013-01-25 11:08:00,
2013-01-25 05:12:00,47.2,44.1,30.24,SW,223,0.0,0.0,89,0.00,,SKC,0.00,VWS V14.01,2013-01-25 11:12:00,
2013-01-25 05:17:00,47.0,43.9,30.24,SW,223,0.0,0.0,89,0.00,,SKC,0.00,VWS V14.01,2013-01-25 11:17:00,
2013-01-25 05:22:00,46.9,44.1,30.24,SW,223,0.0,0.0,90,0.00,,SKC,0.00,VWS V14.01,2013-01-25 11:22:00,
2013-01-25 05:27:00,46.7,43.9,30.24,SW,223,0.0,0.0,90,0.00,,SKC,0.00,VWS V14.01,2013-01-25 11:27:00,
2013-01-25 05:32:00,46.6,43.8,30.24,SW,223,0.0,0.0,90,0.00,,SKC,0.00,VWS V14.01,2013-01-25 11:32:00,
2013-01-25 05:37:00,46.5,43.7,30.24,SW,223,0.0,0.0,90,0.00,,SKC,0.00,VWS V14.01,2013-01-25 11:37:00,
2013-01-25 05:42:00,46.4,43.6,30.24,SW,223,0.0,0.0,90,0.00,,SKC,0.00,VWS V14.01,2013-01-25 11:42:00,
2013-01-25 05:47:00,46.4,43.3,30.25,SW,223,0.0,0.0,89,0.00,,SKC,0.00,VWS V14.01,2013-01-25 11:47:00,
2013-01-25 05:52:00,46.3,43.5,30.25,SW,223,0.0,0.0,90,0.00,,SKC,0.00,VWS V14.01,2013-01-25 11:52:00,
2013-01-25 05:57:00,46.3,43.5,30.25,SW,223,0.0,0.0,90,0.00,,SKC,0.00,VWS V14.01,2013-01-25 11:57:00,
2013-01-25 06:02:00,46.2,43.1,30.25,SW,223,0.0,0.0,89,0.00,,SKC,0.00,VWS V14.01,2013-01-25 12:02:00,
2013-01-25 06:07:00,46.1,43.0,30.25,SW,223,0.0,0.0,89,0.00,,SKC,0.00,VWS V14.01,2013-01-25 12:07:00,
2013-01-25 06:12:00,46.1,43.0,30.25,SW,223,0.0,0.0,89,0.00,,SKC,0.00,VWS V14.01,2013-01-25 12:12:00,
2013-01-25 06:17:00,46.0,43.0,30.25,SW,223,0.0,0.0,89,0.00,,SKC,0.00,VWS V14.01,2013-01-25 12:17:00,
2013-01-25 06:22:00,46.0,43.0,30.26,SW,223,0.0,0.0,89,0.00,,SKC,0.00,VWS V14.01,2013-01-25 12:22:00,
2013-01-25 06:27:00,46.0,43.0,30.26,SW,223,0.0,0.0,89,0.00,,SKC,0.00,VWS V14.01,2013-01-25 12:27:00,
2013-01-25 06:32:00,46.0,43.0,30.26,SW,223,0.0,0.0,89,0.00,,SKC,0.00,VWS V14.01,2013-01-25 12:32:00,
2013-01-25 06:37:00,45.9,42.8,30.26,SW,223,0.0,0.0,89,0.00,,SKC,0.00,VWS V14.01,2013-01-25 12:37:00,
2013-01-25 06:42:00,45.8,42.8,30.26,SW,223,0.0,0.0,89,0.00,,SKC,0.00,VWS V14.01,2013-01-25 12:42:00,
2013-01-25 06:47:00,45.7,42.7,30.26,SW,223,0.0,0.0,89,0.00,,SKC,0.00,VWS V14.01,2013-01-25 12:47:00,
2013-01-25 06:52:00,45.7,42.7,30.26,SW,223,0.0,0.0,89,0.00,,SKC,0.00,VWS V14.01,2013-01-25 12:52:00,
2013-01-25 06:57:00,45.8,42.8,30.26,SW,223,0.0,0.0,89,0.00,,SKC,0.00,VWS V14.01,2013-01-25 12:57:00,
2013-01-25 07:02:00,45.9,42.5,30.27,SW,223,0.0,0.0,88,0.00,,SKC,0.00,VWS V14.01,2013-01-25 13:02:00,
2013-01-25 07:07:00,45.9,42.5,30.26,SW,223,0.0,0.0,88,0.00,,SKC,0.00,VWS V14.01,2013-01-25 13:07:00,
2013-01-25 07:12:00,46.1,42.8,30.26,SW,223,0.0,0.0,88,0.00,,SKC,0.00,VWS V14.01,2013-01-25 13:12:00,
2013-01-25 07:17:00,46.3,43.0,30.26,SW,223,0.0,0.0,88,0.00,,SKC,0.00,VWS V14.01,2013-01-25 13:17:00,
2013-01-25 07:22:00,46.7,43.3,30.26,SW,223,0.0,0.0,88,0.00,,SKC,0.00,VWS V14.01,2013-01-25 13:22:00,
2013-01-25 07:27:00,47.1,43.4,30.26,SW,223,0.0,0.0,87,0.00,,SKC,0.00,VWS V14.01,2013-01-25 13:27:00,
2013-01-25 07:32:00,47.7,44.0,30.27,SW,236,0.0,0.0,87,0.00,,SKC,0.00,VWS V14.01,2013-01-25 13:32:00,
2013-01-25 07:37:00,48.6,44.9,30.27,NNW,344,1.0,2.0,87,0.00,,SKC,0.00,VWS V14.01,2013-01-25 13:37:00,
2013-01-25 07:42:00,49.3,45.6,30.27,NNW,344,0.0,2.0,87,0.00,,SKC,0.00,VWS V14.01,2013-01-25 13:42:00,
2013-01-25 07:47:00,49.6,46.2,30.27,NNW,344,0.0,2.0,88,0.00,,SKC,0.00,VWS V14.01,2013-01-25 13:47:00,
2013-01-25 07:52:00,49.8,46.1,30.27,NNW,344,0.0,2.0,87,0.00,,SKC,0.00,VWS V14.01,2013-01-25 13:52:00,
2013-01-25 07:57:00,50.3,46.9,30.28,NNW,344,2.0,2.0,88,0.00,,SKC,0.00,VWS V14.01,2013-01-25 13:57:00,
2013-01-25 08:02:00,50.7,47.0,30.28,NNW,344,2.0,4.0,87,0.00,,SKC,0.00,VWS V14.01,2013-01-25 14:02:00,
2013-01-25 08:07:00,51.3,47.6,30.28,NE,46,2.0,5.0,87,0.00,,SKC,0.00,VWS V14.01,2013-01-25 14:07:00,
2013-01-25 08:12:00,51.5,48.1,30.28,ENE,63,3.0,5.0,88,0.00,,SKC,0.00,VWS V14.01,2013-01-25 14:12:00,
2013-01-25 08:17:00,52.0,48.3,30.28,ENE,63,3.0,5.0,87,0.00,,SKC,0.00,VWS V14.01,2013-01-25 14:17:00,
2013-01-25 08:22:00,52.5,48.8,30.28,ENE,63,2.0,5.0,87,0.00,,SKC,0.00,VWS V14.01,2013-01-25 14:22:00,
2013-01-25 08:27:00,53.0,49.2,30.28,ENE,63,2.0,5.0,87,0.00,,SKC,0.00,VWS V14.01,2013-01-25 14:27:00,
2013-01-25 08:32:00,53.6,49.8,30.28,ENE,63,1.0,2.0,87,0.00,,SKC,0.00,VWS V14.01,2013-01-25 14:32:00,
2013-01-25 08:37:00,54.0,50.2,30.29,NE,55,2.0,4.0,87,0.00,,SKC,0.00,VWS V14.01,2013-01-25 14:37:00,
2013-01-25 08:42:00,54.5,50.7,30.29,NE,55,0.0,4.0,87,0.00,,SKC,0.00,VWS V14.01,2013-01-25 14:42:00,
2013-01-25 08:47:00,55.4,51.6,30.28,ENE,78,1.0,4.0,87,0.00,,SKC,0.00,VWS V14.01,2013-01-25 14:47:00,
2013-01-25 08:52:00,56.2,52.4,30.28,South,177,0.0,4.0,87,0.00,,SKC,0.00,VWS V14.01,2013-01-25 14:52:00,
2013-01-25 08:57:00,57.0,53.2,30.28,South,177,0.0,4.0,87,0.00,,SKC,0.00,VWS V14.01,2013-01-25 14:57:00,
2013-01-25 09:02:00,57.8,54.0,30.28,South,177,1.0,2.0,87,0.00,,SKC,0.00,VWS V14.01,2013-01-25 15:02:00,
2013-01-25 09:07:00,58.6,54.8,30.28,South,177,2.0,2.0,87,0.00,,SKC,0.00,VWS V14.01,2013-01-25 15:07:00,
2013-01-25 09:12:00,59.4,55.8,30.29,South,177,1.0,2.0,88,0.00,,SKC,0.00,VWS V14.01,2013-01-25 15:12:00,
2013-01-25 09:17:00,60.3,58.0,30.28,South,176,0.0,4.0,92,0.00,,SKC,0.00,VWS V14.01,2013-01-25 15:17:00,
2013-01-25 09:22:00,61.3,59.3,30.29,SE,144,3.0,5.0,93,0.00,,SKC,0.00,VWS V14.01,2013-01-25 15:22:00,
2013-01-25 09:27:00,62.2,59.8,30.29,SE,144,2.0,5.0,92,0.00,,SKC,0.00,VWS V14.01,2013-01-25 15:27:00,
2013-01-25 09:32:00,63.1,59.8,30.29,SE,146,4.0,4.0,89,0.00,,SKC,0.00,VWS V14.01,2013-01-25 15:32:00,
2013-01-25 09:37:00,64.0,59.7,30.29,SE,142,4.0,7.0,86,0.00,,SKC,0.00,VWS V14.01,2013-01-25 15:37:00,
2013-01-25 09:42:00,64.7,60.1,30.29,SSE,148,1.0,7.0,85,0.00,,SKC,0.00,VWS V14.01,2013-01-25 15:42:00,
2013-01-25 09:47:00,65.3,60.3,30.29,South,189,4.0,7.0,84,0.00,,SKC,0.00,VWS V14.01,2013-01-25 15:47:00,
2013-01-25 09:52:00,65.8,60.8,30.28,South,172,0.0,7.0,84,0.00,,SKC,0.00,VWS V14.01,2013-01-25 15:52:00,
2013-01-25 09:57:00,66.3,60.3,30.28,SE,143,6.0,9.0,81,0.00,,SKC,0.00,VWS V14.01,2013-01-25 15:57:00,
2013-01-25 10:02:00,66.8,60.4,30.28,South,186,6.0,9.0,80,0.00,,SKC,0.00,VWS V14.01,2013-01-25 16:02:00,
2013-01-25 10:07:00,67.0,60.6,30.27,SSW,193,12.0,12.0,80,0.00,,SKC,0.00,VWS V14.01,2013-01-25 16:07:00,
2013-01-25 10:12:00,67.2,60.5,30.27,SSW,205,4.0,12.0,79,0.00,,SKC,0.00,VWS V14.01,2013-01-25 16:12:00,
2013-01-25 10:17:00,67.7,60.6,30.27,South,183,4.0,12.0,78,0.00,,SKC,0.00,VWS V14.01,2013-01-25 16:17:00,
2013-01-25 10:22:00,68.1,60.6,30.27,South,190,8.0,12.0,77,0.00,,SKC,0.00,VWS V14.01,2013-01-25 16:22:00,
2013-01-25 10:27:00,68.1,60.6,30.27,SSE,160,8.0,12.0,77,0.00,,SKC,0.00,VWS V14.01,2013-01-25 16:27:00,
2013-01-25 10:32:00,68.1,60.6,30.27,SSW,194,9.0,9.0,77,0.00,,SKC,0.00,VWS V14.01,2013-01-25 16:32:00,
2013-01-25 10:37:00,68.6,60.4,30.27,South,186,4.0,11.0,75,0.00,,SKC,0.00,VWS V14.01,2013-01-25 16:37:00,
2013-01-25 10:42:00,68.8,59.8,30.27,SSW,209,6.0,13.0,73,0.00,,SKC,0.00,VWS V14.01,2013-01-25 16:42:00,
2013-01-25 10:47:00,69.0,59.6,30.26,SSW,208,5.0,13.0,72,0.00,,SKC,0.00,VWS V14.01,2013-01-25 16:47:00,
2013-01-25 10:52:00,69.4,60.0,30.25,SW,225,3.0,13.0,72,0.00,,SKC,0.00,VWS V14.01,2013-01-25 16:52:00,
2013-01-25 10:57:00,69.7,59.9,30.25,SSE,151,7.0,13.0,71,0.00,,SKC,0.00,VWS V14.01,2013-01-25 16:57:00,
2013-01-25 11:02:00,69.5,59.3,30.25,SSW,206,11.0,14.0,70,0.00,,SKC,0.00,VWS V14.01,2013-01-25 17:02:00,
2013-01-25 11:07:00,69.2,59.0,30.25,South,180,10.0,15.0,70,0.00,,SKC,0.00,VWS V14.01,2013-01-25 17:07:00,
2013-01-25 11:12:00,69.3,59.5,30.25,South,186,5.0,15.0,71,0.00,,SKC,0.00,VWS V14.01,2013-01-25 17:12:00,
2013-01-25 11:17:00,69.5,58.9,30.24,SSW,202,12.0,15.0,69,0.00,,SKC,0.00,VWS V14.01,2013-01-25 17:17:00,
2013-01-25 11:22:00,69.3,59.1,30.24,WSW,248,3.0,15.0,70,0.00,,SKC,0.00,VWS V14.01,2013-01-25 17:22:00,
2013-01-25 11:27:00,69.5,59.3,30.24,SSE,153,4.0,15.0,70,0.00,,SKC,0.00,VWS V14.01,2013-01-25 17:27:00,
2013-01-25 11:32:00,69.6,59.0,30.24,SW,216,4.0,15.0,69,0.00,,SKC,0.00,VWS V14.01,2013-01-25 17:32:00,
2013-01-25 11:37:00,69.4,59.2,30.24,SSW,194,13.0,15.0,70,0.00,,SKC,0.00,VWS V14.01,2013-01-25 17:37:00,
2013-01-25 11:42:00,69.4,59.2,30.23,SW,214,4.0,15.0,70,0.00,,SKC,0.00,VWS V14.01,2013-01-25 17:42:00,
2013-01-25 11:47:00,69.3,59.5,30.23,SSE,166,6.0,15.0,71,0.00,,SKC,0.00,VWS V14.01,2013-01-25 17:47:00,
2013-01-25 11:52:00,69.5,59.3,30.23,SSE,157,9.0,15.0,70,0.00,,SKC,0.00,VWS V14.01,2013-01-25 17:52:00,
2013-01-25 11:57:00,69.4,59.6,30.23,SSW,196,6.0,15.0,71,0.00,,SKC,0.00,VWS V14.01,2013-01-25 17:57:00,
2013-01-25 12:02:00,69.9,59.7,30.22,SSW,195,7.0,14.0,70,0.00,,SKC,0.00,VWS V14.01,2013-01-25 18:02:00,
2013-01-25 12:07:00,69.8,59.2,30.22,SSW,212,14.0,14.0,69,0.00,,SKC,0.00,VWS V14.01,2013-01-25 18:07:00,
2013-01-25 12:12:00,69.4,58.4,30.21,South,170,11.0,14.0,68,0.00,,SKC,0.00,VWS V14.01,2013-01-25 18:12:00,
2013-01-25 12:17:00,69.2,58.6,30.21,South,171,6.0,14.0,69,0.00,,SKC,0.00,VWS V14.01,2013-01-25 18:17:00,
2013-01-25 12:22:00,69.6,59.4,30.21,SSW,204,5.0,14.0,70,0.00,,SKC,0.00,VWS V14.01,2013-01-25 18:22:00,
2013-01-25 12:27:00,69.9,59.7,30.20,SE,146,9.0,14.0,70,0.00,,SKC,0.00,VWS V14.01,2013-01-25 18:27:00,
2013-01-25 12:32:00,69.8,59.6,30.20,South,169,10.0,13.0,70,0.00,,SKC,0.00,VWS V14.01,2013-01-25 18:32:00,
2013-01-25 12:37:00,69.9,59.7,30.20,SSW,193,2.0,15.0,70,0.00,,SKC,0.00,VWS V14.01,2013-01-25 18:37:00,
2013-01-25 12:42:00,70.1,59.1,30.20,South,191,8.0,15.0,68,0.00,,SKC,0.00,VWS V14.01,2013-01-25 18:42:00,
2013-01-25 12:47:00,70.2,58.7,30.19,SW,215,12.0,15.0,67,0.00,,SKC,0.00,VWS V14.01,2013-01-25 18:47:00,
2013-01-25 12:52:00,69.8,58.8,30.19,South,190,5.0,16.0,68,0.00,,SKC,0.00,VWS V14.01,2013-01-25 18:52:00,
2013-01-25 12:57:00,69.4,58.4,30.19,SSW,196,5.0,16.0,68,0.00,,SKC,0.00,VWS V14.01,2013-01-25 18:57:00,
2013-01-25 13:02:00,69.9,59.3,30.19,South,189,6.0,9.0,69,0.00,,SKC,0.00,VWS V14.01,2013-01-25 19:02:00,
2013-01-25 13:07:00,70.3,58.8,30.19,SW,233,6.0,12.0,67,0.00,,SKC,0.00,VWS V14.01,2013-01-25 19:07:00,
2013-01-25 13:12:00,69.7,58.3,30.19,South,188,12.0,16.0,67,0.00,,SKC,0.00,VWS V14.01,2013-01-25 19:12:00,
2013-01-25 13:17:00,69.1,58.5,30.19,SSE,163,6.0,16.0,69,0.00,,SKC,0.00,VWS V14.01,2013-01-25 19:17:00,
2013-01-25 13:22:00,69.3,58.3,30.19,SSW,198,5.0,16.0,68,0.00,,SKC,0.00,VWS V14.01,2013-01-25 19:22:00,
2013-01-25 13:27:00,68.9,58.3,30.19,SW,226,11.0,16.0,69,0.00,,SKC,0.00,VWS V14.01,2013-01-25 19:27:00,
2013-01-25 13:32:00,68.3,58.2,30.19,SW,219,9.0,12.0,70,0.00,,SKC,0.00,VWS V14.01,2013-01-25 19:32:00,
2013-01-25 13:37:00,67.9,57.8,30.19,SSW,200,5.0,12.0,70,0.00,,SKC,0.00,VWS V14.01,2013-01-25 19:37:00,
2013-01-25 13:42:00,67.7,58.0,30.19,SSW,213,6.0,12.0,71,0.00,,SKC,0.00,VWS V14.01,2013-01-25 19:42:00,
2013-01-25 13:47:00,67.8,58.5,30.19,SW,232,1.0,12.0,72,0.00,,SKC,0.00,VWS V14.01,2013-01-25 19:47:00,
2013-01-25 13:52:00,68.4,58.6,30.19,South,188,6.0,12.0,71,0.00,,SKC,0.00,VWS V14.01,2013-01-25 19:52:00,
2013-01-25 13:57:00,69.0,59.2,30.19,SW,218,6.0,12.0,71,0.00,,SKC,0.00,VWS V14.01,2013-01-25 19:57:00,
2013-01-25 14:02:00,69.3,59.5,30.19,South,184,6.0,6.0,71,0.00,,SKC,0.00,VWS V14.01,2013-01-25 20:02:00,
2013-01-25 14:07:00,69.7,59.5,30.19,SSW,213,7.0,10.0,70,0.00,,SKC,0.00,VWS V14.01,2013-01-25 20:07:00,
2013-01-25 14:12:00,69.7,59.5,30.19,South,182,0.0,10.0,70,0.00,,SKC,0.00,VWS V14.01,2013-01-25 20:12:00,
2013-01-25 14:17:00,70.0,58.5,30.19,SW,232,4.0,10.0,67,0.00,,SKC,0.00,VWS V14.01,2013-01-25 20:17:00,
2013-01-25 14:22:00,69.8,58.4,30.19,SW,234,9.0,11.0,67,0.00,,SKC,0.00,VWS V14.01,2013-01-25 20:22:00,
2013-01-25 14:27:00,69.7,58.3,30.18,SSW,211,3.0,12.0,67,0.00,,SKC,0.00,VWS V14.01,2013-01-25 20:27:00,
2013-01-25 14:32:00,70.2,58.3,30.18,SW,222,1.0,12.0,66,0.00,,SKC,0.00,VWS V14.01,2013-01-25 20:32:00,
2013-01-25 14:37:00,70.6,58.3,30.18,SSW,198,6.0,12.0,65,0.00,,SKC,0.00,VWS V14.01,2013-01-25 20:37:00,
2013-01-25 14:42:00,70.6,59.1,30.18,SSW,193,7.0,13.0,67,0.00,,SKC,0.00,VWS V14.01,2013-01-25 20:42:00,
2013-01-25 14:47:00,70.6,58.7,30.18,SW,221,9.0,13.0,66,0.00,,SKC,0.00,VWS V14.01,2013-01-25 20:47:00,
2013-01-25 14:52:00,69.9,58.5,30.18,South,175,7.0,14.0,67,0.00,,SKC,0.00,VWS V14.01,2013-01-25 20:52:00,
2013-01-25 14:57:00,69.1,58.5,30.18,South,173,6.0,14.0,69,0.00,,SKC,0.00,VWS V14.01,2013-01-25 20:57:00,
2013-01-25 15:02:00,68.6,58.4,30.18,SSW,196,4.0,6.0,70,0.00,,SKC,0.00,VWS V14.01,2013-01-25 21:02:00,
2013-01-25 15:07:00,68.5,58.7,30.18,SW,217,4.0,7.0,71,0.00,,SKC,0.00,VWS V14.01,2013-01-25 21:07:00,
2013-01-25 15:12:00,68.5,58.7,30.18,SSW,212,8.0,10.0,71,0.00,,SKC,0.00,VWS V14.01,2013-01-25 21:12:00,
2013-01-25 15:17:00,68.5,58.3,30.18,South,190,2.0,11.0,70,0.00,,SKC,0.00,VWS V14.01,2013-01-25 21:17:00,
2013-01-25 15:22:00,68.7,58.1,30.18,SW,220,5.0,11.0,69,0.00,,SKC,0.00,VWS V14.01,2013-01-25 21:22:00,
2013-01-25 15:27:00,68.9,58.7,30.18,SSW,209,6.0,11.0,70,0.00,,SKC,0.00,VWS V14.01,2013-01-25 21:27:00,
2013-01-25 15:32:00,69.3,58.7,30.18,WSW,240,6.0,7.0,69,0.00,,SKC,0.00,VWS V14.01,2013-01-25 21:32:00,
2013-01-25 15:37:00,69.1,58.5,30.18,SSW,210,7.0,11.0,69,0.00,,SKC,0.00,VWS V14.01,2013-01-25 21:37:00,
2013-01-25 15:42:00,68.9,58.7,30.18,South,173,7.0,12.0,70,0.00,,SKC,0.00,VWS V14.01,2013-01-25 21:42:00,
2013-01-25 15:47:00,68.9,58.7,30.17,SW,215,6.0,12.0,70,0.00,,SKC,0.00,VWS V14.01,2013-01-25 21:47:00,
2013-01-25 15:52:00,68.7,58.5,30.17,SW,226,8.0,12.0,70,0.00,,SKC,0.00,VWS V14.01,2013-01-25 21:52:00,
2013-01-25 15:57:00,68.5,58.7,30.17,SSW,205,2.0,12.0,71,0.00,,SKC,0.00,VWS V14.01,2013-01-25 21:57:00,
2013-01-25 16:02:00,68.4,58.6,30.17,WSW,254,4.0,7.0,71,0.00,,SKC,0.00,VWS V14.01,2013-01-25 22:02:00,
2013-01-25 16:07:00,68.4,58.6,30.17,SSW,194,2.0,9.0,71,0.00,,SKC,0.00,VWS V14.01,2013-01-25 22:07:00,
2013-01-25 16:12:00,68.3,58.2,30.18,SW,223,4.0,9.0,70,0.00,,SKC,0.00,VWS V14.01,2013-01-25 22:12:00,
2013-01-25 16:17:00,68.1,58.3,30.17,SSW,200,4.0,9.0,71,0.00,,SKC,0.00,VWS V14.01,2013-01-25 22:17:00,
2013-01-25 16:22:00,68.0,58.7,30.18,WSW,257,2.0,11.0,72,0.00,,SKC,0.00,VWS V14.01,2013-01-25 22:22:00,
2013-01-25 16:27:00,68.0,58.7,30.18,SW,217,6.0,11.0,72,0.00,,SKC,0.00,VWS V14.01,2013-01-25 22:27:00,
2013-01-25 16:32:00,67.7,58.4,30.17,SW,228,2.0,7.0,72,0.00,,SKC,0.00,VWS V14.01,2013-01-25 22:32:00,
2013-01-25 16:37:00,67.0,58.1,30.17,SW,222,5.0,8.0,73,0.00,,SKC,0.00,VWS V14.01,2013-01-25 22:37:00,
2013-01-25 16:42:00,66.5,58.3,30.17,South,179,7.0,8.0,75,0.00,,SKC,0.00,VWS V14.01,2013-01-25 22:42:00,
2013-01-25 16:47:00,66.0,58.2,30.17,WSW,245,2.0,8.0,76,0.00,,SKC,0.00,VWS V14.01,2013-01-25 22:47:00,
2013-01-25 16:52:00,65.6,58.2,30.17,SSW,207,3.0,8.0,77,0.00,,SKC,0.00,VWS V14.01,2013-01-25 22:52:00,
2013-01-25 16:57:00,65.3,58.3,30.17,SW,221,0.0,8.0,78,0.00,,SKC,0.00,VWS V14.01,2013-01-25 22:57:00,
2013-01-25 17:02:00,65.0,58.3,30.17,SW,221,1.0,4.0,79,0.00,,SKC,0.00,VWS V14.01,2013-01-25 23:02:00,
2013-01-25 17:07:00,64.7,58.4,30.17,SSW,213,0.0,6.0,80,0.00,,SKC,0.00,VWS V14.01,2013-01-25 23:07:00,
2013-01-25 17:12:00,64.5,58.5,30.17,SSW,213,2.0,6.0,81,0.00,,SKC,0.00,VWS V14.01,2013-01-25 23:12:00,
2013-01-25 17:17:00,64.2,58.6,30.17,SSW,213,0.0,6.0,82,0.00,,SKC,0.00,VWS V14.01,2013-01-25 23:17:00,
2013-01-25 17:22:00,63.8,58.5,30.17,SSW,213,0.0,6.0,83,0.00,,SKC,0.00,VWS V14.01,2013-01-25 23:22:00,
2013-01-25 17:27:00,63.5,58.6,30.17,SSW,213,0.0,6.0,84,0.00,,SKC,0.00,VWS V14.01,2013-01-25 23:27:00,
2013-01-25 17:32:00,63.2,58.6,30.17,SSW,213,0.0,1.0,85,0.00,,SKC,0.00,VWS V14.01,2013-01-25 23:32:00,
2013-01-25 17:37:00,62.9,58.3,30.17,SSW,213,1.0,4.0,85,0.00,,SKC,0.00,VWS V14.01,2013-01-25 23:37:00,
2013-01-25 17:42:00,62.5,58.3,30.17,SSW,213,1.0,4.0,86,0.00,,SKC,0.00,VWS V14.01,2013-01-25 23:42:00,
2013-01-25 17:47:00,62.2,58.0,30.16,SSW,213,0.0,4.0,86,0.00,,SKC,0.00,VWS V14.01,2013-01-25 23:47:00,
2013-01-25 17:52:00,62.0,58.1,30.16,SSW,213,0.0,4.0,87,0.00,,SKC,0.00,VWS V14.01,2013-01-25 23:52:00,
2013-01-25 17:57:00,61.8,58.2,30.16,SSW,213,0.0,4.0,88,0.00,,SKC,0.00,VWS V14.01,2013-01-25 23:57:00,
2013-01-25 18:02:00,61.8,58.2,30.16,SSW,213,0.0,4.0,88,0.00,,SKC,0.00,VWS V14.01,2013-01-26 00:02:00,
2013-01-25 18:07:00,61.7,58.4,30.16,SSW,213,0.0,5.0,89,0.00,,SKC,0.00,VWS V14.01,2013-01-26 00:07:00,
2013-01-25 18:12:00,61.6,58.3,30.16,SSW,213,3.0,5.0,89,0.00,,SKC,0.00,VWS V14.01,2013-01-26 00:12:00,
2013-01-25 18:17:00,61.5,58.2,30.16,SSW,213,0.0,5.0,89,0.00,,SKC,0.00,VWS V14.01,2013-01-26 00:17:00,
2013-01-25 18:22:00,61.5,58.2,30.16,SSW,213,1.0,5.0,89,0.00,,SKC,0.00,VWS V14.01,2013-01-26 00:22:00,
2013-01-25 18:27:00,61.4,58.1,30.16,SSW,213,0.0,5.0,89,0.00,,SKC,0.00,VWS V14.01,2013-01-26 00:27:00,
2013-01-25 18:32:00,61.3,58.3,30.16,SSW,213,2.0,4.0,90,0.00,,SKC,0.00,VWS V14.01,2013-01-26 00:32:00,
2013-01-25 18:37:00,61.3,58.3,30.16,SW,221,1.0,7.0,90,0.00,,SKC,0.00,VWS V14.01,2013-01-26 00:37:00,
2013-01-25 18:42:00,61.3,58.3,30.16,SW,221,1.0,7.0,90,0.00,,SKC,0.00,VWS V14.01,2013-01-26 00:42:00,
2013-01-25 18:47:00,61.3,58.3,30.16,SW,220,2.0,7.0,90,0.00,,SKC,0.00,VWS V14.01,2013-01-26 00:47:00,
2013-01-25 18:52:00,61.4,58.5,30.16,SW,229,0.0,7.0,90,0.00,,SKC,0.00,VWS V14.01,2013-01-26 00:52:00,
2013-01-25 18:57:00,61.4,58.5,30.16,SW,229,0.0,7.0,90,0.00,,SKC,0.00,VWS V14.01,2013-01-26 00:57:00,
2013-01-25 19:02:00,61.3,58.3,30.15,SW,229,1.0,4.0,90,0.00,,SKC,0.00,VWS V14.01,2013-01-26 01:02:00,
2013-01-25 19:07:00,61.3,58.3,30.15,SW,229,0.0,4.0,90,0.00,,SKC,0.00,VWS V14.01,2013-01-26 01:07:00,
2013-01-25 19:12:00,61.3,58.7,30.15,SW,224,2.0,5.0,91,0.00,,SKC,0.00,VWS V14.01,2013-01-26 01:12:00,
2013-01-25 19:17:00,61.2,58.6,30.15,SW,224,0.0,5.0,91,0.00,,SKC,0.00,VWS V14.01,2013-01-26 01:17:00,
2013-01-25 19:22:00,61.1,58.5,30.15,SW,224,0.0,5.0,91,0.00,,SKC,0.00,VWS V14.01,2013-01-26 01:22:00,
2013-01-25 19:27:00,61.1,58.5,30.15,SW,224,0.0,5.0,91,0.00,,SKC,0.00,VWS V14.01,2013-01-26 01:27:00,
2013-01-25 19:32:00,61.0,58.4,30.16,SW,224,1.0,1.0,91,0.00,,SKC,0.00,VWS V14.01,2013-01-26 01:32:00,
2013-01-25 19:37:00,61.0,58.4,30.16,SW,224,0.0,6.0,91,0.00,,SKC,0.00,VWS V14.01,2013-01-26 01:37:00,
2013-01-25 19:42:00,60.9,58.3,30.16,SW,224,0.0,6.0,91,0.00,,SKC,0.00,VWS V14.01,2013-01-26 01:42:00,
2013-01-25 19:47:00,60.9,58.3,30.16,SW,224,0.0,6.0,91,0.00,,SKC,0.00,VWS V14.01,2013-01-26 01:47:00,
2013-01-25 19:52:00,60.8,58.2,30.16,SW,224,0.0,6.0,91,0.00,,SKC,0.00,VWS V14.01,2013-01-26 01:52:00,
2013-01-25 19:57:00,60.8,58.5,30.16,SW,224,0.0,6.0,92,0.00,,SKC,0.00,VWS V14.01,2013-01-26 01:57:00,
2013-01-25 20:02:00,60.8,58.2,30.16,SW,224,0.0,0.0,91,0.00,,SKC,0.00,VWS V14.01,2013-01-26 02:02:00,
2013-01-25 20:07:00,60.8,58.2,30.16,SW,224,1.0,3.0,91,0.00,,SKC,0.00,VWS V14.01,2013-01-26 02:07:00,
2013-01-25 20:12:00,60.7,58.1,30.16,SW,224,0.0,3.0,91,0.00,,SKC,0.00,VWS V14.01,2013-01-26 02:12:00,
2013-01-25 20:17:00,60.6,58.0,30.16,SW,224,1.0,3.0,91,0.00,,SKC,0.00,VWS V14.01,2013-01-26 02:17:00,
2013-01-25 20:22:00,60.5,57.9,30.17,SW,224,0.0,3.0,91,0.00,,SKC,0.00,VWS V14.01,2013-01-26 02:22:00,
2013-01-25 20:27:00,60.4,58.1,30.16,SW,224,1.0,3.0,92,0.00,,SKC,0.00,VWS V14.01,2013-01-26 02:27:00,
2013-01-25 20:32:00,60.3,58.0,30.17,SW,224,0.0,2.0,92,0.00,,SKC,0.00,VWS V14.01,2013-01-26 02:32:00,
2013-01-25 20:37:00,60.2,57.9,30.16,SW,224,0.0,2.0,92,0.00,,SKC,0.00,VWS V14.01,2013-01-26 02:37:00,
2013-01-25 20:42:00,60.1,57.8,30.17,SW,224,0.0,4.0,92,0.00,,SKC,0.00,VWS V14.01,2013-01-26 02:42:00,
2013-01-25 20:47:00,60.0,57.7,30.17,SW,224,0.0,4.0,92,0.00,,SKC,0.00,VWS V14.01,2013-01-26 02:47:00,
2013-01-25 20:52:00,59.9,57.6,30.17,SW,224,0.0,4.0,92,0.00,,SKC,0.00,VWS V14.01,2013-01-26 02:52:00,
2013-01-25 20:57:00,59.8,57.5,30.17,SW,224,0.0,4.0,92,0.00,,SKC,0.00,VWS V14.01,2013-01-26 02:57:00,
2013-01-25 21:02:00,59.7,57.4,30.17,SW,224,2.0,2.0,92,0.00,,SKC,0.00,VWS V14.01,2013-01-26 03:02:00,
2013-01-25 21:07:00,59.6,57.3,30.17,SW,224,0.0,4.0,92,0.00,,SKC,0.00,VWS V14.01,2013-01-26 03:07:00,
2013-01-25 21:12:00,59.5,57.2,30.17,SW,224,0.0,4.0,92,0.00,,SKC,0.00,VWS V14.01,2013-01-26 03:12:00,
2013-01-25 21:17:00,59.4,57.1,30.18,SW,224,0.0,4.0,92,0.00,,SKC,0.00,VWS V14.01,2013-01-26 03:17:00,
2013-01-25 21:22:00,59.2,56.9,30.18,SW,224,1.0,4.0,92,0.00,,SKC,0.00,VWS V14.01,2013-01-26 03:22:00,
2013-01-25 21:27:00,59.0,56.7,30.18,SW,224,0.0,4.0,92,0.00,,SKC,0.00,VWS V14.01,2013-01-26 03:27:00,
2013-01-25 21:32:00,58.9,56.6,30.18,SW,224,0.0,1.0,92,0.00,,SKC,0.00,VWS V14.01,2013-01-26 03:32:00,
2013-01-25 21:37:00,58.7,56.4,30.18,SW,224,0.0,2.0,92,0.00,,SKC,0.00,VWS V14.01,2013-01-26 03:37:00,
2013-01-25 21:42:00,58.6,56.3,30.18,SW,224,0.0,2.0,92,0.00,,SKC,0.00,VWS V14.01,2013-01-26 03:42:00,
2013-01-25 21:47:00,58.6,56.3,30.18,SW,224,0.0,2.0,92,0.00,,SKC,0.00,VWS V14.01,2013-01-26 03:47:00,
2013-01-25 21:52:00,58.4,56.1,30.18,SW,224,0.0,2.0,92,0.00,,SKC,0.00,VWS V14.01,2013-01-26 03:52:00,
2013-01-25 21:57:00,58.2,55.9,30.18,SW,224,0.0,2.0,92,0.00,,SKC,0.00,VWS V14.01,2013-01-26 03:57:00,
2013-01-25 22:02:00,57.9,55.6,30.18,SW,224,0.0,0.0,92,0.00,,SKC,0.00,VWS V14.01,2013-01-26 04:02:00,
2013-01-25 22:07:00,57.7,55.4,30.19,SW,224,0.0,0.0,92,0.00,,SKC,0.00,VWS V14.01,2013-01-26 04:07:00,
2013-01-25 22:12:00,57.5,55.2,30.19,SW,224,0.0,0.0,92,0.00,,SKC,0.00,VWS V14.01,2013-01-26 04:12:00,
2013-01-25 22:17:00,57.3,55.0,30.19,SW,224,0.0,0.0,92,0.00,,SKC,0.00,VWS V14.01,2013-01-26 04:17:00,
2013-01-25 22:22:00,57.0,54.7,30.19,SW,224,0.0,0.0,92,0.00,,SKC,0.00,VWS V14.01,2013-01-26 04:22:00,
2013-01-25 22:27:00,56.5,54.2,30.19,SW,224,0.0,0.0,92,0.00,,SKC,0.00,VWS V14.01,2013-01-26 04:27:00,
2013-01-25 22:32:00,55.9,53.6,30.19,SW,224,0.0,0.0,92,0.00,,SKC,0.00,VWS V14.01,2013-01-26 04:32:00,
2013-01-25 22:37:00,55.7,53.7,30.19,SW,224,0.0,0.0,93,0.00,,SKC,0.00,VWS V14.01,2013-01-26 04:37:00,
2013-01-25 22:42:00,55.4,53.1,30.19,SW,224,0.0,0.0,92,0.00,,SKC,0.00,VWS V14.01,2013-01-26 04:42:00,
2013-01-25 22:47:00,55.1,53.1,30.19,SW,224,0.0,0.0,93,0.00,,SKC,0.00,VWS V14.01,2013-01-26 04:47:00,
2013-01-25 22:52:00,54.8,52.5,30.19,SW,224,0.0,0.0,92,0.00,,SKC,0.00,VWS V14.01,2013-01-26 04:52:00,
2013-01-25 22:57:00,54.6,52.3,30.19,SW,224,0.0,0.0,92,0.00,,SKC,0.00,VWS V14.01,2013-01-26 04:57:00,
2013-01-25 23:00:00,54.6,52.3,30.19,SW,224,0.0,0.0,92,0.00,,SKC,0.00,VWS V14.01,2013-01-26 05:00:00,
2013-01-25 23:02:00,54.5,52.2,30.19,SW,224,0.0,0.0,92,0.00,,SKC,0.00,VWS V14.01,2013-01-26 05:02:00,
2013-01-25 23:07:00,54.4,52.1,30.19,SW,224,0.0,0.0,92,0.00,,SKC,0.00,VWS V14.01,2013-01-26 05:07:00,
2013-01-25 23:12:00,54.2,51.9,30.19,SW,224,0.0,0.0,92,0.00,,SKC,0.00,VWS V14.01,2013-01-26 05:12:00,
2013-01-25 23:17:00,53.9,51.6,30.19,SW,224,0.0,0.0,92,0.00,,SKC,0.00,VWS V14.01,2013-01-26 05:17:00,
2013-01-25 23:22:00,53.8,51.5,30.19,SW,224,0.0,0.0,92,0.00,,SKC,0.00,VWS V14.01,2013-01-26 05:22:00,
2013-01-25 23:27:00,53.7,51.4,30.19,SW,224,0.0,0.0,92,0.00,,SKC,0.00,VWS V14.01,2013-01-26 05:27:00,
2013-01-25 23:32:00,53.5,51.2,30.19,SW,224,0.0,0.0,92,0.00,,SKC,0.00,VWS V14.01,2013-01-26 05:32:00,
2013-01-25 23:37:00,53.3,51.0,30.19,SW,224,0.0,0.0,92,0.00,,SKC,0.00,VWS V14.01,2013-01-26 05:37:00,
2013-01-25 23:42:00,53.1,50.8,30.19,SW,224,0.0,0.0,92,0.00,,SKC,0.00,VWS V14.01,2013-01-26 05:42:00,
2013-01-25 23:47:00,53.0,50.7,30.18,SW,224,0.0,0.0,92,0.00,,SKC,0.00,VWS V14.01,2013-01-26 05:47:00,
2013-01-25 23:51:00,52.9,50.6,30.18,SW,224,0.0,0.0,92,0.00,,SKC,0.00,VWS V14.01,2013-01-26 05:51:00,
2013-01-25 23:56:00,53.0,50.5,30.18,SW,224,0.0,1.0,91,0.00,,SKC,0.00,VWS V14.01,2013-01-26 05:56:00,